Time,TemperatureF,DewpointF,PressureIn,WindDirection,WindDirectionDegrees,WindSpeedMPH,WindSpeedGustMPH,Humidity,HourlyPrecipIn,Conditions,Clouds,dailyrainin,SoftwareType,DateUTC
2013-01-30 00:02:00,34.2,34.0,30.01,SSE,160,8.0,13.0,99,0.01,,---,0.00,VWS V14.01,2013-01-30 05:02:00,
2013-01-30 00:04:00,34.3,34.0,30.01,SE,145,8.0,13.0,99,0.01,,---,0.00,VWS V14.01,2013-01-30 05:04:00,
2013-01-30 00:05:00,34.3,34.0,30.00,ESE,115,9.0,13.0,99,0.01,,---,0.00,VWS V14.01,2013-01-30 05:05:00,
2013-01-30 00:10:00,34.3,34.0,30.00,ESE,118,7.0,14.0,99,0.01,,---,0.00,VWS V14.01,2013-01-30 05:10:00,
2013-01-30 00:16:00,34.4,34.2,30.00,SSE,160,9.0,14.0,99,0.01,,---,0.00,VWS V14.01,2013-01-30 05:16:00,
2013-01-30 00:21:00,34.4,34.2,30.00,SSE,162,11.0,17.0,99,0.01,,---,0.00,VWS V14.01,2013-01-30 05:21:00,
2013-01-30 00:26:00,34.4,34.2,30.00,SSE,148,10.0,15.0,99,0.01,,---,0.00,VWS V14.01,2013-01-30 05:26:00,
2013-01-30 00:32:00,34.4,34.2,30.00,SE,129,10.0,14.0,99,0.01,,---,0.00,VWS V14.01,2013-01-30 05:32:00,
2013-01-30 00:38:00,34.5,34.2,30.00,SE,146,13.0,17.0,99,0.01,,---,0.00,VWS V14.01,2013-01-30 05:38:00,
2013-01-30 00:43:00,34.4,34.2,30.00,SE,132,10.0,16.0,99,0.01,,---,0.00,VWS V14.01,2013-01-30 05:43:00,
2013-01-30 00:49:00,34.4,34.2,30.00,SE,139,10.0,14.0,99,0.01,,---,0.00,VWS V14.01,2013-01-30 05:49:00,
2013-01-30 00:54:00,34.4,34.2,30.00,SSE,158,13.0,13.0,99,0.00,,---,0.00,VWS V14.01,2013-01-30 05:54:00,
2013-01-30 01:00:00,34.4,34.2,29.99,SE,131,8.0,16.0,99,0.00,,---,0.00,VWS V14.01,2013-01-30 06:00:00,
2013-01-30 01:06:00,34.4,34.2,29.99,SE,143,9.0,14.0,99,0.00,,---,0.00,VWS V14.01,2013-01-30 06:06:00,
2013-01-30 01:11:00,34.4,34.2,29.98,ESE,122,11.0,15.0,99,0.00,,---,0.00,VWS V14.01,2013-01-30 06:11:00,
2013-01-30 01:16:00,34.4,34.2,29.98,SE,143,12.0,15.0,99,0.00,,---,0.00,VWS V14.01,2013-01-30 06:16:00,
2013-01-30 01:22:00,34.4,34.2,29.97,SE,145,11.0,16.0,99,0.00,,---,0.00,VWS V14.01,2013-01-30 06:22:00,
2013-01-30 01:27:00,34.4,34.2,29.97,SE,136,10.0,12.0,99,0.01,,---,0.01,VWS V14.01,2013-01-30 06:27:00,
2013-01-30 01:32:00,34.3,34.0,29.97,SE,146,7.0,15.0,99,0.01,,---,0.01,VWS V14.01,2013-01-30 06:32:00,
2013-01-30 01:37:00,34.3,34.0,29.97,SSE,150,8.0,13.0,99,0.01,,---,0.01,VWS V14.01,2013-01-30 06:37:00,
2013-01-30 01:42:00,34.3,34.0,29.96,SE,132,10.0,16.0,99,0.01,,---,0.01,VWS V14.01,2013-01-30 06:42:00,
2013-01-30 01:47:00,34.2,34.0,29.96,SE,144,12.0,15.0,99,0.01,,---,0.01,VWS V14.01,2013-01-30 06:47:00,
2013-01-30 01:52:00,34.2,34.0,29.96,SE,146,12.0,16.0,99,0.01,,---,0.01,VWS V14.01,2013-01-30 06:52:00,
2013-01-30 01:57:00,34.3,34.0,29.96,SE,146,13.0,18.0,99,0.01,,---,0.01,VWS V14.01,2013-01-30 06:57:00,
2013-01-30 02:03:00,34.3,34.0,29.96,SSE,157,8.0,15.0,99,0.01,,---,0.01,VWS V14.01,2013-01-30 07:03:00,
2013-01-30 02:08:00,34.3,34.0,29.95,SSE,158,10.0,15.0,99,0.01,,---,0.01,VWS V14.01,2013-01-30 07:08:00,
2013-01-30 02:13:00,34.2,34.0,29.95,SE,136,10.0,14.0,99,0.01,,---,0.01,VWS V14.01,2013-01-30 07:13:00,
2013-01-30 02:19:00,34.1,33.8,29.95,SE,145,13.0,16.0,99,0.01,,---,0.01,VWS V14.01,2013-01-30 07:19:00,
2013-01-30 02:24:00,34.1,33.8,29.94,SE,132,10.0,16.0,99,0.01,,---,0.01,VWS V14.01,2013-01-30 07:24:00,
2013-01-30 02:29:00,34.1,33.8,29.94,SSE,148,10.0,18.0,99,0.00,,---,0.01,VWS V14.01,2013-01-30 07:29:00,
2013-01-30 02:34:00,34.1,33.8,29.94,SSE,167,12.0,18.0,99,0.00,,---,0.01,VWS V14.01,2013-01-30 07:34:00,
2013-01-30 02:39:00,34.1,33.8,29.94,SSE,160,11.0,16.0,99,0.00,,---,0.01,VWS V14.01,2013-01-30 07:39:00,
2013-01-30 02:45:00,34.1,33.8,29.93,SE,145,10.0,16.0,99,0.00,,---,0.01,VWS V14.01,2013-01-30 07:45:00,
2013-01-30 02:50:00,34.1,33.8,29.92,SSE,153,12.0,17.0,99,0.00,,---,0.01,VWS V14.01,2013-01-30 07:50:00,
2013-01-30 02:55:00,34.0,33.8,29.92,SE,128,11.0,15.0,99,0.00,,---,0.01,VWS V14.01,2013-01-30 07:55:00,
2013-01-30 03:01:00,34.0,33.8,29.91,SSE,163,9.0,17.0,99,0.00,,---,0.01,VWS V14.01,2013-01-30 08:01:00,
2013-01-30 03:06:00,34.0,33.8,29.91,SE,142,14.0,17.0,99,0.00,,---,0.01,VWS V14.01,2013-01-30 08:06:00,
2013-01-30 03:11:00,34.0,33.8,29.91,SSE,155,10.0,17.0,99,0.00,,---,0.01,VWS V14.01,2013-01-30 08:11:00,
2013-01-30 03:16:00,34.0,33.8,29.91,SSE,167,13.0,18.0,99,0.00,,---,0.01,VWS V14.01,2013-01-30 08:16:00,
2013-01-30 03:22:00,34.0,33.8,29.91,SSE,166,12.0,20.0,99,0.00,,---,0.01,VWS V14.01,2013-01-30 08:22:00,
2013-01-30 03:28:00,33.9,33.7,29.90,SE,135,10.0,16.0,99,0.00,,---,0.01,VWS V14.01,2013-01-30 08:28:00,
2013-01-30 03:33:00,33.9,33.7,29.90,SE,136,9.0,16.0,99,0.00,,---,0.01,VWS V14.01,2013-01-30 08:33:00,
2013-01-30 03:38:00,34.0,33.8,29.90,SSE,156,10.0,17.0,99,0.00,,---,0.01,VWS V14.01,2013-01-30 08:38:00,
2013-01-30 03:43:00,34.0,33.8,29.90,SE,144,13.0,18.0,99,0.00,,---,0.01,VWS V14.01,2013-01-30 08:43:00,
2013-01-30 03:49:00,34.0,33.8,29.89,SE,139,9.0,17.0,99,0.00,,---,0.01,VWS V14.01,2013-01-30 08:49:00,
2013-01-30 03:54:00,34.0,33.8,29.88,South,173,12.0,17.0,99,0.00,,---,0.01,VWS V14.01,2013-01-30 08:54:00,
2013-01-30 04:00:00,34.1,33.8,29.88,ESE,107,9.0,19.0,99,0.00,,---,0.01,VWS V14.01,2013-01-30 09:00:00,
2013-01-30 04:05:00,34.1,33.8,29.88,SSE,156,8.0,22.0,99,0.00,,---,0.01,VWS V14.01,2013-01-30 09:05:00,
2013-01-30 04:10:00,34.2,34.0,29.88,SSE,155,13.0,21.0,99,0.00,,---,0.01,VWS V14.01,2013-01-30 09:10:00,
2013-01-30 04:16:00,34.4,34.2,29.87,SSE,158,10.0,21.0,99,0.00,,---,0.01,VWS V14.01,2013-01-30 09:16:00,
2013-01-30 04:21:00,34.5,34.2,29.87,SE,144,16.0,22.0,99,0.00,,---,0.01,VWS V14.01,2013-01-30 09:21:00,
2013-01-30 04:26:00,34.7,34.5,29.87,SE,146,11.0,21.0,99,0.00,,---,0.01,VWS V14.01,2013-01-30 09:26:00,
2013-01-30 04:31:00,34.7,34.5,29.87,SSE,156,17.0,19.0,99,0.00,,---,0.01,VWS V14.01,2013-01-30 09:31:00,
2013-01-30 04:37:00,34.8,34.5,29.87,SE,126,11.0,19.0,99,0.00,,---,0.01,VWS V14.01,2013-01-30 09:37:00,
2013-01-30 04:42:00,34.9,34.7,29.87,ESE,123,13.0,18.0,99,0.00,,---,0.01,VWS V14.01,2013-01-30 09:42:00,
2013-01-30 04:47:00,35.0,34.8,29.87,SSE,149,11.0,18.0,99,0.00,,---,0.01,VWS V14.01,2013-01-30 09:47:00,
2013-01-30 04:53:00,35.1,34.8,29.87,SSE,157,13.0,18.0,99,0.00,,---,0.01,VWS V14.01,2013-01-30 09:53:00,
2013-01-30 04:58:00,35.2,35.0,29.87,SSE,153,13.0,16.0,99,0.00,,---,0.01,VWS V14.01,2013-01-30 09:58:00,
2013-01-30 05:04:00,35.4,35.2,29.87,SE,129,11.0,17.0,99,0.00,,---,0.01,VWS V14.01,2013-01-30 10:04:00,
2013-01-30 05:09:00,35.5,35.2,29.86,SE,125,14.0,17.0,99,0.00,,---,0.01,VWS V14.01,2013-01-30 10:09:00,
2013-01-30 05:15:00,35.7,35.5,29.86,SE,139,9.0,18.0,99,0.00,,---,0.01,VWS V14.01,2013-01-30 10:15:00,
2013-01-30 05:20:00,35.8,35.5,29.86,SE,139,10.0,17.0,99,0.00,,---,0.01,VWS V14.01,2013-01-30 10:20:00,
2013-01-30 05:25:00,35.9,35.7,29.86,SSE,165,11.0,16.0,99,0.00,,---,0.01,VWS V14.01,2013-01-30 10:25:00,
2013-01-30 05:30:00,36.0,35.8,29.86,SSE,150,9.0,18.0,99,0.00,,---,0.01,VWS V14.01,2013-01-30 10:30:00,
2013-01-30 05:36:00,36.2,36.0,29.86,SE,146,11.0,15.0,99,0.00,,---,0.01,VWS V14.01,2013-01-30 10:36:00,
2013-01-30 05:41:00,36.3,36.0,29.85,SE,144,11.0,14.0,99,0.00,,---,0.01,VWS V14.01,2013-01-30 10:41:00,
2013-01-30 05:46:00,36.3,36.0,29.85,SE,143,11.0,15.0,99,0.00,,---,0.01,VWS V14.01,2013-01-30 10:46:00,
2013-01-30 05:51:00,36.3,36.0,29.84,SE,138,11.0,13.0,99,0.00,,---,0.01,VWS V14.01,2013-01-30 10:51:00,
2013-01-30 05:57:00,36.4,36.2,29.84,SE,132,10.0,14.0,99,0.00,,---,0.01,VWS V14.01,2013-01-30 10:57:00,
2013-01-30 06:03:00,36.4,36.2,29.83,SE,143,12.0,14.0,99,0.00,,---,0.01,VWS V14.01,2013-01-30 11:03:00,
2013-01-30 06:08:00,36.4,36.2,29.83,SSE,158,13.0,15.0,99,0.00,,---,0.01,VWS V14.01,2013-01-30 11:08:00,
2013-01-30 06:13:00,36.4,36.2,29.83,ESE,121,7.0,16.0,99,0.00,,---,0.01,VWS V14.01,2013-01-30 11:13:00,
2013-01-30 06:18:00,36.4,36.2,29.83,ESE,121,11.0,14.0,99,0.00,,---,0.01,VWS V14.01,2013-01-30 11:18:00,
2013-01-30 06:23:00,36.4,36.2,29.83,SSE,153,10.0,14.0,99,0.01,,---,0.02,VWS V14.01,2013-01-30 11:23:00,
2013-01-30 06:28:00,36.4,36.2,29.83,SSE,160,7.0,16.0,99,0.01,,---,0.02,VWS V14.01,2013-01-30 11:28:00,
2013-01-30 06:33:00,36.4,36.2,29.82,SE,126,7.0,16.0,99,0.01,,---,0.02,VWS V14.01,2013-01-30 11:33:00,
2013-01-30 06:38:00,36.4,36.2,29.81,ESE,122,11.0,14.0,99,0.01,,---,0.02,VWS V14.01,2013-01-30 11:38:00,
2013-01-30 06:43:00,36.5,36.2,29.81,SE,124,9.0,16.0,99,0.01,,---,0.02,VWS V14.01,2013-01-30 11:43:00,
2013-01-30 06:48:00,36.5,36.2,29.81,SE,139,10.0,16.0,99,0.01,,---,0.02,VWS V14.01,2013-01-30 11:48:00,
2013-01-30 06:53:00,36.7,36.5,29.81,SSE,152,12.0,16.0,99,0.01,,---,0.02,VWS V14.01,2013-01-30 11:53:00,
2013-01-30 06:58:00,36.7,36.5,29.80,SSE,153,8.0,13.0,99,0.01,,---,0.02,VWS V14.01,2013-01-30 11:58:00,
2013-01-30 07:03:00,36.8,36.5,29.79,SE,143,10.0,16.0,99,0.01,,---,0.02,VWS V14.01,2013-01-30 12:03:00,
2013-01-30 07:08:00,36.9,36.7,29.80,SE,136,9.0,14.0,99,0.01,,---,0.02,VWS V14.01,2013-01-30 12:08:00,
2013-01-30 07:13:00,37.0,36.8,29.80,SE,132,11.0,16.0,99,0.01,,---,0.02,VWS V14.01,2013-01-30 12:13:00,
2013-01-30 07:18:00,37.1,36.8,29.80,SSE,148,9.0,14.0,99,0.01,,---,0.02,VWS V14.01,2013-01-30 12:18:00,
2013-01-30 07:24:00,37.2,37.0,29.78,SE,124,8.0,15.0,99,0.00,,---,0.02,VWS V14.01,2013-01-30 12:24:00,
2013-01-30 07:29:00,37.4,37.2,29.78,SE,142,11.0,13.0,99,0.00,,---,0.02,VWS V14.01,2013-01-30 12:29:00,
2013-01-30 07:34:00,37.5,37.2,29.78,SE,140,8.0,17.0,99,0.00,,---,0.02,VWS V14.01,2013-01-30 12:34:00,
2013-01-30 07:39:00,37.5,37.2,29.78,SSE,150,10.0,15.0,99,0.00,,---,0.02,VWS V14.01,2013-01-30 12:39:00,
2013-01-30 07:44:00,37.5,37.2,29.78,ESE,115,8.0,13.0,99,0.00,,---,0.02,VWS V14.01,2013-01-30 12:44:00,
2013-01-30 07:49:00,37.5,37.2,29.78,SE,140,8.0,12.0,99,0.00,,---,0.02,VWS V14.01,2013-01-30 12:49:00,
2013-01-30 07:54:00,37.6,37.3,29.77,ESE,110,5.0,11.0,99,0.00,,---,0.02,VWS V14.01,2013-01-30 12:54:00,
2013-01-30 07:59:00,37.7,37.5,29.77,SE,126,10.0,13.0,99,0.00,,---,0.02,VWS V14.01,2013-01-30 12:59:00,
2013-01-30 08:04:00,37.7,37.5,29.77,SE,134,5.0,11.0,99,0.00,,---,0.02,VWS V14.01,2013-01-30 13:04:00,
2013-01-30 08:09:00,37.7,37.5,29.78,SE,124,7.0,13.0,99,0.00,,---,0.02,VWS V14.01,2013-01-30 13:09:00,
2013-01-30 08:15:00,37.8,37.5,29.77,SE,136,8.0,10.0,99,0.00,,---,0.02,VWS V14.01,2013-01-30 13:15:00,
2013-01-30 08:20:00,38.0,37.7,29.77,SE,133,5.0,13.0,99,0.00,,---,0.02,VWS V14.01,2013-01-30 13:20:00,
2013-01-30 08:25:00,38.4,38.1,29.76,SSE,150,12.0,13.0,99,0.00,,---,0.02,VWS V14.01,2013-01-30 13:25:00,
2013-01-30 08:31:00,38.7,38.4,29.76,SE,128,4.0,12.0,99,0.00,,---,0.02,VWS V14.01,2013-01-30 13:31:00,
2013-01-30 08:36:00,38.7,38.4,29.76,SE,146,7.0,10.0,99,0.00,,---,0.02,VWS V14.01,2013-01-30 13:36:00,
2013-01-30 08:41:00,38.8,38.5,29.76,SE,142,8.0,10.0,99,0.00,,---,0.02,VWS V14.01,2013-01-30 13:41:00,
2013-01-30 08:46:00,39.2,38.9,29.76,SSE,148,10.0,15.0,99,0.00,,---,0.02,VWS V14.01,2013-01-30 13:46:00,
2013-01-30 08:51:00,39.4,39.1,29.75,ESE,122,6.0,14.0,99,0.00,,---,0.02,VWS V14.01,2013-01-30 13:51:00,
2013-01-30 08:56:00,39.3,39.0,29.75,SE,144,8.0,12.0,99,0.00,,---,0.02,VWS V14.01,2013-01-30 13:56:00,
2013-01-30 09:01:00,39.5,39.2,29.75,SE,139,7.0,10.0,99,0.00,,---,0.02,VWS V14.01,2013-01-30 14:01:00,
2013-01-30 09:06:00,39.6,39.3,29.74,SE,139,8.0,13.0,99,0.00,,---,0.02,VWS V14.01,2013-01-30 14:06:00,
2013-01-30 09:11:00,39.7,39.4,29.73,ESE,110,9.0,12.0,99,0.00,,---,0.02,VWS V14.01,2013-01-30 14:11:00,
2013-01-30 09:16:00,39.7,39.4,29.73,ESE,120,6.0,11.0,99,0.00,,---,0.02,VWS V14.01,2013-01-30 14:16:00,
2013-01-30 09:21:00,39.7,39.4,29.73,SSE,153,9.0,12.0,99,0.00,,---,0.02,VWS V14.01,2013-01-30 14:21:00,
2013-01-30 09:26:00,39.7,39.4,29.73,East,90,4.0,11.0,99,0.00,,---,0.02,VWS V14.01,2013-01-30 14:26:00,
2013-01-30 09:31:00,39.8,39.5,29.72,ESE,104,5.0,9.0,99,0.00,,---,0.02,VWS V14.01,2013-01-30 14:31:00,
2013-01-30 09:36:00,39.9,39.6,29.73,SE,132,6.0,11.0,99,0.00,,---,0.02,VWS V14.01,2013-01-30 14:36:00,
2013-01-30 09:41:00,40.0,39.7,29.72,ESE,114,7.0,10.0,99,0.00,,---,0.02,VWS V14.01,2013-01-30 14:41:00,
2013-01-30 09:46:00,40.2,39.9,29.71,ESE,116,8.0,10.0,99,0.00,,---,0.02,VWS V14.01,2013-01-30 14:46:00,
2013-01-30 09:51:00,40.5,40.2,29.72,SE,134,6.0,12.0,99,0.00,,---,0.02,VWS V14.01,2013-01-30 14:51:00,
2013-01-30 09:56:00,40.7,40.4,29.71,ESE,120,11.0,12.0,99,0.00,,---,0.02,VWS V14.01,2013-01-30 14:56:00,
2013-01-30 10:01:00,40.9,40.6,29.71,SE,130,7.0,13.0,99,0.00,,---,0.02,VWS V14.01,2013-01-30 15:01:00,
2013-01-30 10:06:00,41.1,40.8,29.70,SE,140,7.0,11.0,99,0.00,,---,0.02,VWS V14.01,2013-01-30 15:06:00,
2013-01-30 10:11:00,41.4,41.1,29.71,SSE,156,6.0,15.0,99,0.00,,---,0.02,VWS V14.01,2013-01-30 15:11:00,
2013-01-30 10:16:00,41.7,41.4,29.70,ESE,108,9.0,11.0,99,0.00,,---,0.02,VWS V14.01,2013-01-30 15:16:00,
2013-01-30 10:21:00,42.0,41.7,29.70,SE,146,8.0,14.0,99,0.00,,---,0.02,VWS V14.01,2013-01-30 15:21:00,
2013-01-30 10:26:00,42.2,41.9,29.70,ESE,121,8.0,13.0,99,0.00,,---,0.02,VWS V14.01,2013-01-30 15:26:00,
2013-01-30 10:31:00,42.7,42.4,29.69,SSE,150,10.0,14.0,99,0.00,,---,0.02,VWS V14.01,2013-01-30 15:31:00,
2013-01-30 10:36:00,42.9,42.6,29.69,SSE,165,11.0,16.0,99,0.00,,---,0.02,VWS V14.01,2013-01-30 15:36:00,
2013-01-30 10:41:00,43.3,43.0,29.68,SE,143,12.0,15.0,99,0.00,,---,0.02,VWS V14.01,2013-01-30 15:41:00,
2013-01-30 10:46:00,43.6,43.3,29.68,SE,146,10.0,15.0,99,0.00,,---,0.02,VWS V14.01,2013-01-30 15:46:00,
2013-01-30 10:51:00,43.6,43.3,29.67,SSE,153,14.0,16.0,99,0.00,,---,0.02,VWS V14.01,2013-01-30 15:51:00,
2013-01-30 10:56:00,43.6,43.3,29.67,SSE,152,12.0,18.0,99,0.00,,---,0.02,VWS V14.01,2013-01-30 15:56:00,
2013-01-30 11:01:00,43.7,43.4,29.67,SE,139,9.0,16.0,99,0.00,,---,0.02,VWS V14.01,2013-01-30 16:01:00,
2013-01-30 11:06:00,43.9,43.6,29.66,SE,142,13.0,15.0,99,0.00,,---,0.02,VWS V14.01,2013-01-30 16:06:00,
2013-01-30 11:11:00,44.0,43.7,29.66,SSE,150,12.0,15.0,99,0.00,,---,0.02,VWS V14.01,2013-01-30 16:11:00,
2013-01-30 11:16:00,44.0,43.7,29.66,SE,146,8.0,16.0,99,0.00,,---,0.02,VWS V14.01,2013-01-30 16:16:00,
2013-01-30 11:21:00,44.2,43.9,29.66,SE,142,8.0,15.0,99,0.00,,---,0.02,VWS V14.01,2013-01-30 16:21:00,
2013-01-30 11:26:00,44.5,44.2,29.66,SE,139,9.0,17.0,99,0.00,,---,0.02,VWS V14.01,2013-01-30 16:26:00,
2013-01-30 11:31:00,44.7,44.4,29.66,SE,139,11.0,18.0,99,0.00,,---,0.02,VWS V14.01,2013-01-30 16:31:00,
2013-01-30 11:36:00,44.9,44.6,29.65,SE,139,9.0,16.0,99,0.00,,---,0.02,VWS V14.01,2013-01-30 16:36:00,
2013-01-30 11:41:00,44.8,44.5,29.64,SSE,152,6.0,17.0,99,0.00,,---,0.02,VWS V14.01,2013-01-30 16:41:00,
2013-01-30 11:46:00,44.9,44.6,29.63,SE,139,8.0,14.0,99,0.00,,---,0.02,VWS V14.01,2013-01-30 16:46:00,
2013-01-30 11:51:00,45.3,45.0,29.63,SE,146,10.0,15.0,99,0.00,,---,0.02,VWS V14.01,2013-01-30 16:51:00,
2013-01-30 11:56:00,45.4,45.1,29.64,SE,136,9.0,16.0,99,0.00,,---,0.02,VWS V14.01,2013-01-30 16:56:00,
2013-01-30 12:01:00,45.5,45.2,29.63,SE,146,10.0,14.0,99,0.00,,---,0.02,VWS V14.01,2013-01-30 17:01:00,
2013-01-30 12:06:00,45.5,45.2,29.63,SSE,156,10.0,13.0,99,0.00,,---,0.02,VWS V14.01,2013-01-30 17:06:00,
2013-01-30 12:11:00,45.6,45.3,29.63,SE,132,9.0,15.0,99,0.00,,---,0.02,VWS V14.01,2013-01-30 17:11:00,
2013-01-30 12:16:00,45.4,45.1,29.63,SE,136,8.0,15.0,99,0.00,,---,0.02,VWS V14.01,2013-01-30 17:16:00,
2013-01-30 12:21:00,45.3,45.0,29.62,SE,139,12.0,15.0,99,0.00,,---,0.02,VWS V14.01,2013-01-30 17:21:00,
2013-01-30 12:26:00,45.4,45.1,29.63,SE,134,9.0,14.0,99,0.00,,---,0.02,VWS V14.01,2013-01-30 17:26:00,
2013-01-30 12:31:00,45.5,45.2,29.61,SSE,155,7.0,15.0,99,0.00,,---,0.02,VWS V14.01,2013-01-30 17:31:00,
2013-01-30 12:36:00,45.5,45.2,29.60,SE,140,13.0,16.0,99,0.00,,---,0.02,VWS V14.01,2013-01-30 17:36:00,
2013-01-30 12:41:00,45.7,45.4,29.60,SSE,154,13.0,14.0,99,0.00,,---,0.02,VWS V14.01,2013-01-30 17:41:00,
2013-01-30 12:46:00,45.9,45.6,29.61,South,172,15.0,19.0,99,0.00,,---,0.02,VWS V14.01,2013-01-30 17:46:00,
2013-01-30 12:51:00,46.0,45.7,29.60,SE,146,17.0,20.0,99,0.00,,---,0.02,VWS V14.01,2013-01-30 17:51:00,
2013-01-30 12:56:00,46.1,45.8,29.60,SSE,150,13.0,18.0,99,0.00,,---,0.02,VWS V14.01,2013-01-30 17:56:00,
2013-01-30 13:01:00,46.2,45.9,29.60,SSE,165,9.0,15.0,99,0.00,,---,0.02,VWS V14.01,2013-01-30 18:01:00,
2013-01-30 13:06:00,46.1,45.8,29.60,SE,142,13.0,18.0,99,0.00,,---,0.02,VWS V14.01,2013-01-30 18:06:00,
2013-01-30 13:11:00,46.1,45.8,29.60,SSE,162,10.0,15.0,99,0.00,,---,0.02,VWS V14.01,2013-01-30 18:11:00,
2013-01-30 13:16:00,46.5,46.2,29.59,SSE,158,7.0,14.0,99,0.00,,---,0.02,VWS V14.01,2013-01-30 18:16:00,
2013-01-30 13:21:00,46.6,46.3,29.59,SE,146,10.0,12.0,99,0.00,,---,0.02,VWS V14.01,2013-01-30 18:21:00,
2013-01-30 13:26:00,46.7,46.4,29.59,SE,146,7.0,10.0,99,0.00,,---,0.02,VWS V14.01,2013-01-30 18:26:00,
2013-01-30 13:31:00,46.9,46.6,29.59,SE,140,6.0,11.0,99,0.00,,---,0.02,VWS V14.01,2013-01-30 18:31:00,
2013-01-30 13:36:00,46.9,46.6,29.57,SE,139,7.0,10.0,99,0.00,,---,0.02,VWS V14.01,2013-01-30 18:36:00,
2013-01-30 13:41:00,47.4,47.1,29.58,SE,142,8.0,9.0,99,0.00,,---,0.02,VWS V14.01,2013-01-30 18:41:00,
2013-01-30 13:46:00,47.6,47.3,29.57,ESE,113,5.0,9.0,99,0.00,,---,0.02,VWS V14.01,2013-01-30 18:46:00,
2013-01-30 13:52:00,47.9,47.6,29.57,SE,146,4.0,11.0,99,0.00,,---,0.02,VWS V14.01,2013-01-30 18:52:00,
2013-01-30 13:57:00,48.0,47.7,29.57,SSE,153,6.0,10.0,99,0.00,,---,0.02,VWS V14.01,2013-01-30 18:57:00,
2013-01-30 14:02:00,47.9,47.6,29.57,SSE,148,5.0,10.0,99,0.00,,---,0.02,VWS V14.01,2013-01-30 19:02:00,
2013-01-30 14:07:00,47.8,47.5,29.58,SE,143,4.0,9.0,99,0.00,,---,0.02,VWS V14.01,2013-01-30 19:07:00,
2013-01-30 14:12:00,48.0,47.7,29.58,SE,124,6.0,9.0,99,0.00,,---,0.02,VWS V14.01,2013-01-30 19:12:00,
2013-01-30 14:17:00,48.3,48.0,29.58,SE,136,5.0,7.0,99,0.00,,---,0.02,VWS V14.01,2013-01-30 19:17:00,
2013-01-30 14:22:00,49.1,48.8,29.58,SSE,166,7.0,10.0,99,0.00,,---,0.02,VWS V14.01,2013-01-30 19:22:00,
2013-01-30 14:27:00,49.3,49.0,29.58,SE,144,3.0,7.0,99,0.00,,---,0.02,VWS V14.01,2013-01-30 19:27:00,
2013-01-30 14:32:00,49.2,48.9,29.57,SE,132,2.0,6.0,99,0.00,,---,0.02,VWS V14.01,2013-01-30 19:32:00,
2013-01-30 14:37:00,48.7,48.4,29.57,ESE,103,3.0,4.0,99,0.00,,---,0.02,VWS V14.01,2013-01-30 19:37:00,
2013-01-30 14:42:00,48.5,48.2,29.57,SE,138,6.0,8.0,99,0.00,,---,0.02,VWS V14.01,2013-01-30 19:42:00,
2013-01-30 14:47:00,48.3,48.0,29.57,SE,125,5.0,8.0,99,0.00,,---,0.02,VWS V14.01,2013-01-30 19:47:00,
2013-01-30 14:52:00,47.9,47.6,29.57,ESE,122,7.0,11.0,99,0.00,,---,0.02,VWS V14.01,2013-01-30 19:52:00,
2013-01-30 14:57:00,47.7,47.4,29.56,SSE,148,8.0,13.0,99,0.00,,---,0.02,VWS V14.01,2013-01-30 19:57:00,
2013-01-30 15:02:00,47.7,47.4,29.56,SE,126,7.0,12.0,99,0.00,,---,0.02,VWS V14.01,2013-01-30 20:02:00,
2013-01-30 15:07:00,47.5,47.2,29.56,SE,138,5.0,11.0,99,0.00,,---,0.02,VWS V14.01,2013-01-30 20:07:00,
2013-01-30 15:12:00,47.5,47.2,29.56,SE,135,6.0,12.0,99,0.00,,---,0.02,VWS V14.01,2013-01-30 20:12:00,
2013-01-30 15:17:00,47.5,47.2,29.56,SE,139,9.0,11.0,99,0.00,,---,0.02,VWS V14.01,2013-01-30 20:17:00,
2013-01-30 15:22:00,47.5,47.2,29.56,ESE,118,5.0,7.0,99,0.00,,---,0.02,VWS V14.01,2013-01-30 20:22:00,
2013-01-30 15:27:00,47.5,47.2,29.57,ESE,122,6.0,8.0,99,0.00,,---,0.02,VWS V14.01,2013-01-30 20:27:00,
2013-01-30 15:32:00,47.5,47.2,29.57,SE,132,7.0,10.0,99,0.00,,---,0.02,VWS V14.01,2013-01-30 20:32:00,
2013-01-30 15:37:00,47.7,47.4,29.57,ESE,111,4.0,10.0,99,0.00,,---,0.02,VWS V14.01,2013-01-30 20:37:00,
2013-01-30 15:42:00,47.7,47.4,29.57,SE,129,5.0,8.0,99,0.00,,---,0.02,VWS V14.01,2013-01-30 20:42:00,
2013-01-30 15:47:00,47.9,47.6,29.57,SE,146,4.0,8.0,99,0.00,,---,0.02,VWS V14.01,2013-01-30 20:47:00,
2013-01-30 15:52:00,48.0,47.7,29.57,SE,136,7.0,11.0,99,0.00,,---,0.02,VWS V14.01,2013-01-30 20:52:00,
2013-01-30 15:57:00,48.1,47.8,29.57,SSE,148,7.0,11.0,99,0.01,,---,0.03,VWS V14.01,2013-01-30 20:57:00,
2013-01-30 16:02:00,48.1,47.8,29.56,SE,128,5.0,9.0,99,0.01,,---,0.03,VWS V14.01,2013-01-30 21:02:00,
2013-01-30 16:07:00,48.2,47.9,29.56,SE,132,4.0,10.0,99,0.01,,---,0.03,VWS V14.01,2013-01-30 21:07:00,
2013-01-30 16:12:00,48.2,47.9,29.56,SE,142,6.0,9.0,99,0.02,,---,0.04,VWS V14.01,2013-01-30 21:12:00,
2013-01-30 16:17:00,48.4,48.1,29.56,SE,139,6.0,11.0,99,0.02,,---,0.04,VWS V14.01,2013-01-30 21:17:00,
2013-01-30 16:22:00,48.3,48.0,29.55,SE,139,7.0,10.0,99,0.02,,---,0.04,VWS V14.01,2013-01-30 21:22:00,
2013-01-30 16:27:00,48.5,48.2,29.55,SE,142,5.0,9.0,99,0.03,,---,0.05,VWS V14.01,2013-01-30 21:27:00,
2013-01-30 16:32:00,48.6,48.3,29.56,SSE,159,6.0,8.0,99,0.03,,---,0.05,VWS V14.01,2013-01-30 21:32:00,
2013-01-30 16:37:00,48.8,48.5,29.56,SSE,156,7.0,8.0,99,0.03,,---,0.05,VWS V14.01,2013-01-30 21:37:00,
2013-01-30 16:42:00,48.9,48.6,29.56,SE,146,6.0,7.0,99,0.04,,---,0.06,VWS V14.01,2013-01-30 21:42:00,
2013-01-30 16:47:00,49.0,48.7,29.56,SSE,150,6.0,9.0,99,0.06,,---,0.08,VWS V14.01,2013-01-30 21:47:00,
2013-01-30 16:52:00,49.0,48.7,29.55,SE,136,6.0,11.0,99,0.09,,---,0.11,VWS V14.01,2013-01-30 21:52:00,
2013-01-30 16:57:00,49.2,48.9,29.55,SSE,154,6.0,11.0,99,0.08,,---,0.11,VWS V14.01,2013-01-30 21:57:00,
2013-01-30 17:02:00,49.3,49.0,29.55,SSE,148,8.0,11.0,99,0.08,,---,0.11,VWS V14.01,2013-01-30 22:02:00,
2013-01-30 17:07:00,49.1,48.8,29.55,SSE,148,7.0,10.0,99,0.08,,---,0.11,VWS V14.01,2013-01-30 22:07:00,
2013-01-30 17:12:00,49.0,48.7,29.55,SSE,155,8.0,9.0,99,0.07,,---,0.11,VWS V14.01,2013-01-30 22:12:00,
2013-01-30 17:17:00,48.9,48.6,29.55,SE,145,7.0,10.0,99,0.07,,---,0.11,VWS V14.01,2013-01-30 22:17:00,
2013-01-30 17:22:00,48.9,48.6,29.55,SSE,166,7.0,10.0,99,0.07,,---,0.11,VWS V14.01,2013-01-30 22:22:00,
2013-01-30 17:27:00,49.0,48.7,29.55,SSE,153,7.0,11.0,99,0.06,,---,0.11,VWS V14.01,2013-01-30 22:27:00,
2013-01-30 17:32:00,49.1,48.8,29.54,SSE,150,7.0,11.0,99,0.06,,---,0.11,VWS V14.01,2013-01-30 22:32:00,
2013-01-30 17:37:00,48.9,48.6,29.54,SE,140,9.0,11.0,99,0.06,,---,0.11,VWS V14.01,2013-01-30 22:37:00,
2013-01-30 17:42:00,49.0,48.7,29.53,SSE,156,12.0,12.0,99,0.05,,---,0.11,VWS V14.01,2013-01-30 22:42:00,
2013-01-30 17:47:00,49.0,48.7,29.52,SE,138,5.0,13.0,99,0.04,,---,0.11,VWS V14.01,2013-01-30 22:47:00,
2013-01-30 17:52:00,48.9,48.6,29.52,SSE,150,7.0,10.0,99,0.01,,---,0.11,VWS V14.01,2013-01-30 22:52:00,
2013-01-30 17:57:00,48.8,48.5,29.52,SE,139,7.0,10.0,99,0.00,,---,0.11,VWS V14.01,2013-01-30 22:57:00,
2013-01-30 18:02:00,48.7,48.4,29.52,SSE,150,7.0,10.0,99,0.00,,---,0.11,VWS V14.01,2013-01-30 23:02:00,
2013-01-30 18:07:00,48.8,48.5,29.51,SSE,150,7.0,11.0,99,0.00,,---,0.11,VWS V14.01,2013-01-30 23:07:00,
2013-01-30 18:12:00,48.9,48.6,29.52,SSE,155,7.0,10.0,99,0.00,,---,0.11,VWS V14.01,2013-01-30 23:12:00,
2013-01-30 18:17:00,49.2,48.9,29.53,SSE,150,7.0,11.0,99,0.00,,---,0.11,VWS V14.01,2013-01-30 23:17:00,
2013-01-30 18:22:00,49.8,49.5,29.53,South,183,11.0,11.0,99,0.00,,---,0.11,VWS V14.01,2013-01-30 23:22:00,
2013-01-30 18:27:00,50.2,49.9,29.52,SE,146,7.0,11.0,99,0.00,,---,0.11,VWS V14.01,2013-01-30 23:27:00,
2013-01-30 18:32:00,50.3,50.0,29.52,SE,135,8.0,11.0,99,0.00,,---,0.11,VWS V14.01,2013-01-30 23:32:00,
2013-01-30 18:37:00,50.4,50.1,29.52,South,176,8.0,11.0,99,0.00,,---,0.11,VWS V14.01,2013-01-30 23:37:00,
2013-01-30 18:42:00,50.6,50.3,29.51,SE,146,7.0,10.0,99,0.00,,---,0.11,VWS V14.01,2013-01-30 23:42:00,
2013-01-30 18:47:00,50.6,50.3,29.52,SSE,160,4.0,11.0,99,0.00,,---,0.11,VWS V14.01,2013-01-30 23:47:00,
2013-01-30 18:52:00,50.9,50.6,29.52,South,180,10.0,10.0,99,0.00,,---,0.11,VWS V14.01,2013-01-30 23:52:00,
2013-01-30 18:57:00,51.0,50.7,29.52,SE,142,5.0,9.0,99,0.00,,---,0.11,VWS V14.01,2013-01-30 23:57:00,
2013-01-30 19:02:00,50.6,50.3,29.51,SE,128,5.0,8.0,99,0.00,,---,0.11,VWS V14.01,2013-01-31 00:02:00,
2013-01-30 19:07:00,50.2,49.9,29.51,SSE,150,7.0,11.0,99,0.00,,---,0.11,VWS V14.01,2013-01-31 00:07:00,
2013-01-30 19:12:00,50.0,49.7,29.51,SSE,158,11.0,11.0,99,0.00,,---,0.11,VWS V14.01,2013-01-31 00:12:00,
2013-01-30 19:17:00,49.9,49.6,29.50,SSE,155,8.0,11.0,99,0.00,,---,0.11,VWS V14.01,2013-01-31 00:17:00,
2013-01-30 19:22:00,49.8,49.5,29.50,SE,134,6.0,9.0,99,0.00,,---,0.11,VWS V14.01,2013-01-31 00:22:00,
2013-01-30 19:27:00,49.5,49.2,29.51,SE,142,6.0,10.0,99,0.00,,---,0.11,VWS V14.01,2013-01-31 00:27:00,
2013-01-30 19:32:00,49.3,49.0,29.51,SE,139,8.0,10.0,99,0.00,,---,0.11,VWS V14.01,2013-01-31 00:32:00,
2013-01-30 19:37:00,49.3,49.0,29.50,SE,139,3.0,8.0,99,0.00,,---,0.11,VWS V14.01,2013-01-31 00:37:00,
2013-01-30 19:42:00,49.5,49.2,29.50,SSE,153,8.0,9.0,99,0.00,,---,0.11,VWS V14.01,2013-01-31 00:42:00,
2013-01-30 19:47:00,49.4,49.1,29.50,SSE,155,7.0,8.0,99,0.00,,---,0.11,VWS V14.01,2013-01-31 00:47:00,
2013-01-30 19:52:00,49.5,49.2,29.50,SE,142,5.0,7.0,99,0.00,,---,0.11,VWS V14.01,2013-01-31 00:52:00,
2013-01-30 19:57:00,49.6,49.3,29.51,SSE,153,4.0,7.0,99,0.00,,---,0.11,VWS V14.01,2013-01-31 00:57:00,
2013-01-30 20:02:00,49.7,49.4,29.51,SE,136,3.0,5.0,99,0.00,,---,0.11,VWS V14.01,2013-01-31 01:02:00,
2013-01-30 20:07:00,49.7,49.4,29.51,SSE,150,4.0,7.0,99,0.01,,---,0.12,VWS V14.01,2013-01-31 01:07:00,
2013-01-30 20:12:00,49.8,49.5,29.50,SE,132,4.0,8.0,99,0.01,,---,0.12,VWS V14.01,2013-01-31 01:12:00,
2013-01-30 20:17:00,49.6,49.3,29.49,SSE,150,7.0,8.0,99,0.01,,---,0.12,VWS V14.01,2013-01-31 01:17:00,
2013-01-30 20:22:00,49.6,49.3,29.49,SE,131,6.0,8.0,99,0.01,,---,0.12,VWS V14.01,2013-01-31 01:22:00,
2013-01-30 20:27:00,49.4,49.1,29.48,SSE,159,4.0,8.0,99,0.02,,---,0.13,VWS V14.01,2013-01-31 01:27:00,
2013-01-30 20:32:00,49.3,49.0,29.48,SSE,158,5.0,8.0,99,0.02,,---,0.13,VWS V14.01,2013-01-31 01:32:00,
2013-01-30 20:37:00,49.1,48.8,29.48,SE,139,6.0,9.0,99,0.02,,---,0.13,VWS V14.01,2013-01-31 01:37:00,
2013-01-30 20:42:00,49.2,48.9,29.48,SSE,149,9.0,11.0,99,0.02,,---,0.13,VWS V14.01,2013-01-31 01:42:00,
2013-01-30 20:47:00,49.0,48.7,29.48,SSE,152,7.0,10.0,99,0.02,,---,0.13,VWS V14.01,2013-01-31 01:47:00,
2013-01-30 20:52:00,48.8,48.5,29.48,SE,131,7.0,7.0,99,0.02,,---,0.13,VWS V14.01,2013-01-31 01:52:00,
2013-01-30 20:57:00,49.0,48.7,29.48,SSE,148,5.0,9.0,99,0.02,,---,0.13,VWS V14.01,2013-01-31 01:57:00,
2013-01-30 21:02:00,49.1,48.8,29.48,SE,139,2.0,8.0,99,0.02,,---,0.13,VWS V14.01,2013-01-31 02:02:00,
2013-01-30 21:07:00,49.2,48.9,29.47,SE,145,6.0,7.0,99,0.01,,---,0.13,VWS V14.01,2013-01-31 02:07:00,
2013-01-30 21:12:00,49.2,48.9,29.47,SSE,149,4.0,6.0,99,0.02,,---,0.14,VWS V14.01,2013-01-31 02:12:00,
2013-01-30 21:17:00,49.2,48.9,29.47,SE,136,4.0,7.0,99,0.02,,---,0.14,VWS V14.01,2013-01-31 02:17:00,
2013-01-30 21:22:00,49.1,48.8,29.47,SE,142,5.0,9.0,99,0.02,,---,0.14,VWS V14.01,2013-01-31 02:22:00,
2013-01-30 21:27:00,49.0,48.7,29.46,SE,146,6.0,8.0,99,0.01,,---,0.14,VWS V14.01,2013-01-31 02:27:00,
2013-01-30 21:32:00,49.2,48.9,29.45,ESE,123,5.0,9.0,99,0.02,,---,0.15,VWS V14.01,2013-01-31 02:32:00,
2013-01-30 21:37:00,49.3,49.0,29.44,ESE,115,4.0,7.0,99,0.02,,---,0.15,VWS V14.01,2013-01-31 02:37:00,
2013-01-30 21:42:00,49.3,49.0,29.44,SSE,163,5.0,8.0,99,0.02,,---,0.15,VWS V14.01,2013-01-31 02:42:00,
2013-01-30 21:47:00,49.4,49.1,29.44,SSE,152,8.0,10.0,99,0.02,,---,0.15,VWS V14.01,2013-01-31 02:47:00,
2013-01-30 21:52:00,49.4,49.1,29.44,SE,142,7.0,8.0,99,0.02,,---,0.15,VWS V14.01,2013-01-31 02:52:00,
2013-01-30 21:57:00,49.4,49.1,29.43,SE,146,6.0,9.0,99,0.03,,---,0.16,VWS V14.01,2013-01-31 02:57:00,
2013-01-30 22:02:00,49.4,49.1,29.43,SSE,150,10.0,10.0,99,0.03,,---,0.16,VWS V14.01,2013-01-31 03:02:00,
2013-01-30 22:07:00,49.5,49.2,29.42,SE,127,4.0,9.0,99,0.03,,---,0.16,VWS V14.01,2013-01-31 03:07:00,
2013-01-30 22:12:00,49.4,49.1,29.42,SSE,165,5.0,8.0,99,0.03,,---,0.17,VWS V14.01,2013-01-31 03:12:00,
2013-01-30 22:17:00,49.4,49.1,29.42,SE,143,4.0,10.0,99,0.04,,---,0.18,VWS V14.01,2013-01-31 03:17:00,
2013-01-30 22:22:00,49.4,49.1,29.42,South,169,7.0,13.0,99,0.04,,---,0.18,VWS V14.01,2013-01-31 03:22:00,
2013-01-30 22:27:00,49.3,49.0,29.42,SSE,166,8.0,10.0,99,0.04,,---,0.18,VWS V14.01,2013-01-31 03:27:00,
2013-01-30 22:32:00,49.3,49.0,29.41,South,174,6.0,11.0,99,0.05,,---,0.19,VWS V14.01,2013-01-31 03:32:00,
2013-01-30 22:37:00,49.3,49.0,29.41,SSE,148,5.0,10.0,99,0.05,,---,0.20,VWS V14.01,2013-01-31 03:37:00,
2013-01-30 22:42:00,49.3,49.0,29.40,South,172,6.0,11.0,99,0.05,,---,0.20,VWS V14.01,2013-01-31 03:42:00,
2013-01-30 22:47:00,49.4,49.1,29.40,SSE,150,6.0,11.0,99,0.06,,---,0.21,VWS V14.01,2013-01-31 03:47:00,
2013-01-30 22:52:00,49.2,48.9,29.38,SE,132,5.0,8.0,99,0.06,,---,0.21,VWS V14.01,2013-01-31 03:52:00,
2013-01-30 22:57:00,49.2,48.9,29.37,SSE,160,6.0,8.0,99,0.06,,---,0.22,VWS V14.01,2013-01-31 03:57:00,
2013-01-30 23:02:00,49.1,48.8,29.38,SE,146,5.0,8.0,99,0.07,,---,0.23,VWS V14.01,2013-01-31 04:02:00,
2013-01-30 23:07:00,49.3,49.0,29.37,SE,142,6.0,12.0,99,0.07,,---,0.23,VWS V14.01,2013-01-31 04:07:00,
2013-01-30 23:12:00,49.3,49.0,29.37,SSE,162,7.0,12.0,99,0.07,,---,0.24,VWS V14.01,2013-01-31 04:12:00,
2013-01-30 23:17:00,49.2,48.9,29.38,SSE,153,7.0,10.0,99,0.06,,---,0.24,VWS V14.01,2013-01-31 04:17:00,
2013-01-30 23:22:00,49.2,48.9,29.37,SSE,158,5.0,11.0,99,0.07,,---,0.25,VWS V14.01,2013-01-31 04:22:00,
2013-01-30 23:27:00,49.2,48.9,29.36,SE,139,7.0,10.0,99,0.08,,---,0.26,VWS V14.01,2013-01-31 04:27:00,
2013-01-30 23:32:00,49.1,48.8,29.35,SSE,152,4.0,8.0,99,0.07,,---,0.26,VWS V14.01,2013-01-31 04:32:00,
2013-01-30 23:37:00,49.1,48.8,29.35,SE,132,5.0,7.0,99,0.07,,---,0.27,VWS V14.01,2013-01-31 04:37:00,
2013-01-30 23:42:00,48.9,48.6,29.33,ESE,118,2.0,7.0,99,0.07,,---,0.27,VWS V14.01,2013-01-31 04:42:00,
2013-01-30 23:47:00,48.9,48.6,29.34,SSE,149,5.0,8.0,99,0.07,,---,0.28,VWS V14.01,2013-01-31 04:47:00,
2013-01-30 23:52:00,48.8,48.5,29.32,SE,134,4.0,7.0,99,0.07,,---,0.28,VWS V14.01,2013-01-31 04:52:00,
2013-01-30 23:57:00,48.7,48.4,29.32,SE,132,6.0,9.0,99,0.07,,---,0.29,VWS V14.01,2013-01-31 04:57:00,